Time;durP1;ratioP1;P1;durP2;ratioP2;P2;SDS_P1;SDS_P2;PMS_P1;PMS_P2;Temp;Humidity;BMP_temperature;BMP_pressure;BME280_temperature;BME280_humidity;BME280_pressure;Samples;Min_cycle;Max_cycle;Signal;HPM_P1;HPM_P2
2023/05/30 00:01:09;;;;;;;;;;;13.70;99.90;;;;;;5115412;28;19915;-64
2023/05/30 00:03:36;;;;;;;;;;;13.80;99.90;;;;;;5116025;28;19911;-65
2023/05/30 00:06:03;;;;;;;;;;;13.90;99.90;;;;;;5115844;28;19914;-66
2023/05/30 00:08:30;;;;;;;;;;;14.00;99.90;;;;;;5116026;28;20469;-63
2023/05/30 00:10:56;;;;;;;;;;;14.00;99.90;;;;;;5115279;28;20444;-66
2023/05/30 00:13:24;;;;;;;;;;;14.10;99.90;;;;;;5115123;28;19912;-63
2023/05/30 00:15:52;;;;;;;;;;;14.10;99.90;;;;;;5115125;28;19912;-63
2023/05/30 00:18:18;;;;;;;;;;;14.20;99.90;;;;;;5115277;28;20357;-66
2023/05/30 00:20:45;;;;;;;;;;;14.40;99.90;;;;;;5115114;28;19961;-65
2023/05/30 00:23:12;;;;;;;;;;;14.50;99.90;;;;;;5115510;28;19908;-66
2023/05/30 00:25:39;;;;;;;;;;;14.60;99.90;;;;;;5114974;28;19912;-63
2023/05/30 00:28:07;;;;;;;;;;;14.60;99.90;;;;;;5114672;28;19912;-65
2023/05/30 00:30:35;;;;;;;;;;;14.70;99.90;;;;;;5114953;28;20041;-62
2023/05/30 00:33:02;;;;;;;;;;;14.80;99.90;;;;;;5111943;28;19916;-67
2023/05/30 00:35:29;;;;;;;;;;;14.90;99.90;;;;;;5114194;28;19917;-65
2023/05/30 00:37:55;;;;;;;;;;;15.00;99.80;;;;;;5114606;28;19931;-64
2023/05/30 00:40:22;;;;;;;;;;;15.10;99.50;;;;;;5114815;28;19994;-65
2023/05/30 00:42:49;;;;;;;;;;;15.10;99.30;;;;;;5114206;28;19920;-65
2023/05/30 00:45:15;;;;;;;;;;;15.30;99.40;;;;;;5114613;28;20383;-65
2023/05/30 00:47:42;;;;;;;;;;;15.40;98.60;;;;;;5115055;28;19911;-62
2023/05/30 00:50:09;;;;;;;;;;;15.50;98.50;;;;;;5114739;28;20447;-64
2023/05/30 00:52:36;;;;;;;;;;;15.60;98.30;;;;;;5114329;28;19919;-65
2023/05/30 00:55:03;;;;;;;;;;;15.70;98.10;;;;;;5114937;28;19953;-67
2023/05/30 00:57:33;;;;;;;;;;;15.90;98.00;;;;;;5114970;28;19950;-65
2023/05/30 01:00:04;;;;;;;;;;;16.00;97.70;;;;;;5114332;28;20532;-64
2023/05/30 01:02:33;;;;;;;;;;;16.20;97.70;;;;;;5114339;28;20384;-66
2023/05/30 01:05:00;;;;;;;;;;;16.30;96.80;;;;;;5114568;28;20002;-66
2023/05/30 01:07:27;;;;;;;;;;;16.40;97.00;;;;;;5114164;28;20295;-65
2023/05/30 01:09:54;;;;;;;;;;;16.50;96.90;;;;;;5114118;28;19908;-67
2023/05/30 01:12:27;;;;;;;;;;;16.70;96.70;;;;;;5114203;28;19916;-66
2023/05/30 01:15:06;;;;;;;;;;;16.70;96.40;;;;;;5114368;28;19911;-65
2023/05/30 01:17:36;;;;;;;;;;;16.80;96.40;;;;;;5114398;28;19914;-65
2023/05/30 01:20:12;;;;;;;;;;;16.90;96.00;;;;;;5114471;28;20007;-66
2023/05/30 01:22:49;;;;;;;;;;;17.00;95.60;;;;;;5113850;28;19915;-63
2023/05/30 01:25:33;;;;;;;;;;;17.00;95.70;;;;;;5113659;28;19908;-66
2023/05/30 01:28:10;;;;;;;;;;;17.10;95.50;;;;;;5113930;28;19908;-66
2023/05/30 01:30:38;;;;;;;;;;;17.30;95.80;;;;;;5113531;28;19908;-65
2023/05/30 01:33:06;;;;;;;;;;;17.40;95.50;;;;;;5113556;28;19962;-67
2023/05/30 01:35:33;;;;;;;;;;;17.50;95.10;;;;;;5113760;28;20360;-67
2023/05/30 01:38:00;;;;;;;;;;;17.60;94.80;;;;;;5114287;28;19912;-66
2023/05/30 01:40:28;;;;;;;;;;;17.70;95.10;;;;;;5113649;28;19999;-64
2023/05/30 01:43:17;;;;;;;;;;;17.80;94.80;;;;;;5113478;28;19919;-64
2023/05/30 01:46:07;;;;;;;;;;;17.80;94.80;;;;;;5084588;28;20314;-66
2023/05/30 01:48:44;;;;;;;;;;;17.80;94.80;;;;;;5105838;28;19952;-63
2023/05/30 01:51:15;;;;;;;;;;;18.00;94.60;;;;;;5113308;28;20431;-63
2023/05/30 01:53:43;;;;;;;;;;;18.10;94.40;;;;;;5113623;28;19908;-66
2023/05/30 01:56:13;;;;;;;;;;;18.40;94.30;;;;;;5113706;28;19962;-66
2023/05/30 01:58:40;;;;;;;;;;;18.50;93.80;;;;;;5113467;28;19947;-64
2023/05/30 02:01:08;;;;;;;;;;;18.60;94.00;;;;;;5113496;28;19908;-65
2023/05/30 02:03:34;;;;;;;;;;;18.70;93.90;;;;;;5113510;28;19915;-65
2023/05/30 02:06:01;;;;;;;;;;;18.80;93.80;;;;;;5113553;28;19933;-66
2023/05/30 02:08:28;;;;;;;;;;;18.90;93.60;;;;;;5113405;28;19907;-66
2023/05/30 02:10:54;;;;;;;;;;;18.90;93.40;;;;;;5112986;28;19994;-66
2023/05/30 02:13:21;;;;;;;;;;;19.00;93.50;;;;;;5112974;28;19916;-65
2023/05/30 02:15:48;;;;;;;;;;;19.00;93.40;;;;;;5113326;28;19908;-65
2023/05/30 02:18:14;;;;;;;;;;;19.00;93.40;;;;;;5113357;28;19908;-64
2023/05/30 02:20:41;;;;;;;;;;;18.90;93.20;;;;;;5112860;28;19918;-64
2023/05/30 02:23:08;;;;;;;;;;;18.90;93.20;;;;;;5112947;28;19912;-63
2023/05/30 02:25:34;;;;;;;;;;;18.90;93.40;;;;;;5112993;28;19999;-63
2023/05/30 02:28:01;;;;;;;;;;;19.00;93.00;;;;;;5113256;28;20007;-66
2023/05/30 02:30:28;;;;;;;;;;;19.10;93.20;;;;;;5113073;28;19994;-65
2023/05/30 02:32:54;;;;;;;;;;;19.30;93.00;;;;;;5112489;28;20026;-63
2023/05/30 02:35:21;;;;;;;;;;;19.50;93.00;;;;;;5111912;28;20285;-63
2023/05/30 02:37:48;;;;;;;;;;;19.70;92.60;;;;;;5112872;28;19962;-65
2023/05/30 02:40:15;;;;;;;;;;;19.90;92.30;;;;;;5112609;28;19961;-63
2023/05/30 02:42:41;;;;;;;;;;;20.00;92.10;;;;;;5112387;28;19934;-65
2023/05/30 02:45:08;;;;;;;;;;;20.00;92.20;;;;;;5112756;28;19941;-63
2023/05/30 02:47:35;;;;;;;;;;;20.10;91.70;;;;;;5112838;28;20383;-64
2023/05/30 02:50:01;;;;;;;;;;;20.40;91.30;;;;;;5112536;28;19915;-65
2023/05/30 02:52:28;;;;;;;;;;;21.00;90.70;;;;;;5112327;28;20280;-65
2023/05/30 02:54:55;;;;;;;;;;;21.80;89.00;;;;;;5094298;28;19919;-65
2023/05/30 02:57:22;;;;;;;;;;;22.20;87.40;;;;;;5112831;28;19911;-65
2023/05/30 02:59:48;;;;;;;;;;;22.40;87.10;;;;;;5112812;28;19994;-65
2023/05/30 03:02:15;;;;;;;;;;;22.80;86.10;;;;;;5112119;28;19908;-65
2023/05/30 03:04:46;;;;;;;;;;;22.80;84.40;;;;;;5112019;28;19961;-64
2023/05/30 03:07:13;;;;;;;;;;;23.20;83.30;;;;;;5112112;28;19960;-63
2023/05/30 03:09:42;;;;;;;;;;;23.50;82.00;;;;;;5112296;28;19915;-64
2023/05/30 03:12:09;;;;;;;;;;;23.60;82.20;;;;;;5111641;28;20387;-64
2023/05/30 03:14:36;;;;;;;;;;;23.80;82.30;;;;;;5112075;28;19966;-63
2023/05/30 03:17:03;;;;;;;;;;;23.80;80.60;;;;;;5112108;28;20379;-65
2023/05/30 03:19:30;;;;;;;;;;;23.60;81.30;;;;;;5112167;28;20379;-66
2023/05/30 03:21:57;;;;;;;;;;;23.60;81.40;;;;;;5111882;28;19990;-65
2023/05/30 03:24:24;;;;;;;;;;;23.50;81.40;;;;;;5111918;28;19908;-64
2023/05/30 03:26:50;;;;;;;;;;;23.90;81.00;;;;;;5111920;28;19931;-66
2023/05/30 03:29:18;;;;;;;;;;;23.90;80.40;;;;;;5111837;28;19954;-65
2023/05/30 03:31:45;;;;;;;;;;;23.90;80.10;;;;;;5111737;28;19955;-65
2023/05/30 03:34:11;;;;;;;;;;;24.30;79.40;;;;;;5111755;28;19930;-66
2023/05/30 03:36:40;;;;;;;;;;;25.40;77.50;;;;;;5112154;28;19995;-62
2023/05/30 03:39:06;;;;;;;;;;;26.90;75.40;;;;;;5111496;28;19907;-65
2023/05/30 03:41:33;;;;;;;;;;;28.10;71.40;;;;;;5111345;28;19919;-65
2023/05/30 03:44:00;;;;;;;;;;;28.10;71.00;;;;;;5111783;28;19943;-63
2023/05/30 03:46:26;;;;;;;;;;;28.60;69.80;;;;;;5112144;28;19908;-66
2023/05/30 03:48:53;;;;;;;;;;;28.80;69.00;;;;;;5115725;28;19908;-65
2023/05/30 03:51:20;;;;;;;;;;;28.80;67.60;;;;;;5114872;28;19912;-66
2023/05/30 03:53:46;;;;;;;;;;;28.40;68.10;;;;;;5097342;28;19912;-66
2023/05/30 03:56:13;;;;;;;;;;;28.60;68.40;;;;;;5097228;28;19915;-65
2023/05/30 03:58:40;;;;;;;;;;;29.60;66.50;;;;;;5115596;28;19952;-66
2023/05/30 04:01:07;;;;;;;;;;;30.10;65.40;;;;;;5115296;28;19908;-66
2023/05/30 04:03:35;;;;;;;;;;;30.50;64.50;;;;;;5115823;28;19903;-64
2023/05/30 04:06:01;;;;;;;;;;;31.00;63.90;;;;;;5097222;28;20343;-66
2023/05/30 04:08:28;;;;;;;;;;;31.40;61.90;;;;;;5115603;28;20006;-64
2023/05/30 04:10:55;;;;;;;;;;;31.00;62.00;;;;;;5115134;28;19996;-66
2023/05/30 04:13:21;;;;;;;;;;;30.00;63.00;;;;;;5114984;28;20000;-65
2023/05/30 04:15:48;;;;;;;;;;;28.20;64.50;;;;;;5115350;28;19915;-65
2023/05/30 04:18:15;;;;;;;;;;;26.50;67.30;;;;;;5115076;28;19907;-66
2023/05/30 04:20:41;;;;;;;;;;;25.30;69.60;;;;;;5114877;28;19907;-65
2023/05/30 04:23:08;;;;;;;;;;;24.40;71.50;;;;;;5114789;28;19907;-64
2023/05/30 04:25:35;;;;;;;;;;;23.80;72.60;;;;;;5115298;28;20425;-67
2023/05/30 04:28:03;;;;;;;;;;;23.20;73.90;;;;;;5115282;28;19907;-62
2023/05/30 04:30:30;;;;;;;;;;;22.90;75.00;;;;;;5115111;28;19908;-64
2023/05/30 04:32:57;;;;;;;;;;;22.60;75.70;;;;;;5114792;28;19916;-65
2023/05/30 04:35:23;;;;;;;;;;;22.40;76.50;;;;;;5114733;28;20253;-66
2023/05/30 04:37:50;;;;;;;;;;;22.30;77.10;;;;;;5114819;28;19967;-65
2023/05/30 04:40:17;;;;;;;;;;;22.30;77.60;;;;;;5114778;28;19908;-64
2023/05/30 04:42:50;;;;;;;;;;;22.20;77.80;;;;;;5095724;28;19920;-65
2023/05/30 04:45:18;;;;;;;;;;;22.10;77.90;;;;;;5112766;28;19998;-65
2023/05/30 04:47:47;;;;;;;;;;;22.10;78.60;;;;;;5113046;28;19958;-64
2023/05/30 04:50:15;;;;;;;;;;;22.00;79.10;;;;;;5095291;28;19999;-65
2023/05/30 04:52:42;;;;;;;;;;;22.00;78.60;;;;;;5110255;28;20052;-66
2023/05/30 04:55:10;;;;;;;;;;;22.00;78.80;;;;;;5111246;28;19914;-65
2023/05/30 04:57:38;;;;;;;;;;;22.00;79.00;;;;;;5112698;28;19908;-66
2023/05/30 05:00:10;;;;;;;;;;;22.20;79.70;;;;;;5112161;28;20386;-65
2023/05/30 05:02:38;;;;;;;;;;;22.20;78.60;;;;;;5112360;28;19912;-65
2023/05/30 05:05:05;;;;;;;;;;;22.30;78.80;;;;;;5110570;28;20288;-66
2023/05/30 05:07:32;;;;;;;;;;;22.30;79.30;;;;;;5113323;28;19908;-65
2023/05/30 05:09:59;;;;;;;;;;;22.60;78.40;;;;;;5113389;28;20309;-65
2023/05/30 05:12:26;;;;;;;;;;;22.90;77.40;;;;;;5110016;28;19916;-67
2023/05/30 05:14:54;;;;;;;;;;;23.10;77.20;;;;;;5113179;28;19918;-67
2023/05/30 05:17:20;;;;;;;;;;;23.00;76.80;;;;;;5112135;28;19939;-64
2023/05/30 05:19:47;;;;;;;;;;;22.80;77.20;;;;;;5113413;28;20008;-66
2023/05/30 05:22:13;;;;;;;;;;;22.60;77.70;;;;;;5112489;28;19908;-65
2023/05/30 05:24:40;;;;;;;;;;;22.30;77.90;;;;;;5112394;28;19908;-65
2023/05/30 05:27:07;;;;;;;;;;;22.20;79.00;;;;;;5112996;28;19920;-65
2023/05/30 05:29:33;;;;;;;;;;;22.10;79.60;;;;;;5112950;28;19921;-65
2023/05/30 05:32:00;;;;;;;;;;;22.20;79.80;;;;;;5112981;28;20280;-65
2023/05/30 05:34:27;;;;;;;;;;;22.30;79.00;;;;;;5112905;28;19916;-65
2023/05/30 05:36:53;;;;;;;;;;;22.60;78.50;;;;;;5110560;28;19947;-66
2023/05/30 05:39:20;;;;;;;;;;;22.90;77.70;;;;;;5113018;28;20331;-66
2023/05/30 05:41:46;;;;;;;;;;;23.20;76.50;;;;;;5112496;28;19973;-66
2023/05/30 05:44:13;;;;;;;;;;;23.00;76.70;;;;;;5112060;28;19908;-65
2023/05/30 05:46:40;;;;;;;;;;;22.90;77.50;;;;;;5112380;28;19904;-65
2023/05/30 05:49:06;;;;;;;;;;;23.00;77.50;;;;;;5112396;28;19912;-65
2023/05/30 05:51:33;;;;;;;;;;;23.00;77.50;;;;;;5109769;28;19969;-66
2023/05/30 05:54:00;;;;;;;;;;;23.00;77.50;;;;;;5093897;28;19907;-66
2023/05/30 05:56:26;;;;;;;;;;;23.00;77.90;;;;;;5112442;28;19999;-65
2023/05/30 05:58:53;;;;;;;;;;;23.30;77.70;;;;;;5109752;28;19960;-65
2023/05/30 06:01:20;;;;;;;;;;;23.30;76.60;;;;;;5111902;28;19908;-66
2023/05/30 06:03:46;;;;;;;;;;;23.30;77.30;;;;;;5111684;28;19907;-65
2023/05/30 06:06:13;;;;;;;;;;;23.10;77.30;;;;;;5109483;28;19930;-65
2023/05/30 06:08:40;;;;;;;;;;;23.10;77.30;;;;;;5111951;28;19915;-67
2023/05/30 06:11:06;;;;;;;;;;;23.30;77.00;;;;;;5110809;28;19978;-64
2023/05/30 06:13:33;;;;;;;;;;;23.20;76.80;;;;;;5108994;28;19965;-65
2023/05/30 06:16:00;;;;;;;;;;;22.90;77.70;;;;;;5112330;28;19908;-63
2023/05/30 06:18:26;;;;;;;;;;;22.50;78.40;;;;;;5112449;28;19908;-65
2023/05/30 06:20:53;;;;;;;;;;;22.00;79.40;;;;;;5110015;28;19911;-64
2023/05/30 06:23:20;;;;;;;;;;;21.60;80.50;;;;;;5111864;28;20387;-66
2023/05/30 06:25:46;;;;;;;;;;;21.30;81.60;;;;;;5100935;28;19919;-66
2023/05/30 06:28:13;;;;;;;;;;;21.00;82.70;;;;;;5109695;28;19955;-65
2023/05/30 06:30:40;;;;;;;;;;;20.70;83.30;;;;;;5111409;28;20355;-65
2023/05/30 06:33:06;;;;;;;;;;;20.40;84.00;;;;;;5091416;28;20004;-64
2023/05/30 06:35:33;;;;;;;;;;;20.20;84.70;;;;;;5108338;28;19908;-65
2023/05/30 06:37:59;;;;;;;;;;;19.90;85.30;;;;;;5110666;28;19912;-64
2023/05/30 06:40:26;;;;;;;;;;;19.80;85.70;;;;;;5092609;28;20322;-64
2023/05/30 06:42:53;;;;;;;;;;;19.60;86.10;;;;;;5108272;28;19927;-64
2023/05/30 06:45:19;;;;;;;;;;;19.50;86.70;;;;;;5110599;28;19965;-64
2023/05/30 06:47:46;;;;;;;;;;;19.30;87.10;;;;;;5108328;28;20002;-64
2023/05/30 06:50:13;;;;;;;;;;;19.10;87.70;;;;;;5110532;28;19908;-63
2023/05/30 06:52:39;;;;;;;;;;;19.00;88.30;;;;;;5110040;28;19919;-64
2023/05/30 06:55:06;;;;;;;;;;;18.90;88.80;;;;;;5108965;28;19908;-66
2023/05/30 06:57:35;;;;;;;;;;;18.80;89.40;;;;;;5110485;28;19907;-65
2023/05/30 07:00:03;;;;;;;;;;;18.60;89.70;;;;;;5110254;28;19907;-66
2023/05/30 07:02:30;;;;;;;;;;;18.40;90.40;;;;;;5109497;28;19918;-67
2023/05/30 07:04:56;;;;;;;;;;;18.40;90.40;;;;;;5090155;28;20383;-66
2023/05/30 07:07:23;;;;;;;;;;;18.20;90.80;;;;;;5109653;28;19908;-65
2023/05/30 07:09:50;;;;;;;;;;;18.10;91.20;;;;;;5110441;28;20263;-65
2023/05/30 07:12:16;;;;;;;;;;;17.90;91.60;;;;;;5107531;28;20040;-66
2023/05/30 07:14:43;;;;;;;;;;;17.90;91.80;;;;;;5106460;28;19922;-65
2023/05/30 07:17:10;;;;;;;;;;;17.70;91.90;;;;;;5109840;28;19952;-66
2023/05/30 07:19:36;;;;;;;;;;;17.70;92.50;;;;;;5106853;28;19916;-64
2023/05/30 07:22:03;;;;;;;;;;;17.60;93.00;;;;;;5113140;28;20345;-65
2023/05/30 07:24:30;;;;;;;;;;;17.50;93.00;;;;;;5111154;28;19912;-66
2023/05/30 07:26:56;;;;;;;;;;;17.40;93.40;;;;;;5108802;28;19911;-65
2023/05/30 07:29:23;;;;;;;;;;;17.20;93.60;;;;;;5114744;28;20386;-64
2023/05/30 07:31:49;;;;;;;;;;;17.20;94.10;;;;;;5114723;28;19920;-64
2023/05/30 07:34:16;;;;;;;;;;;17.10;94.30;;;;;;5112220;28;19911;-64
2023/05/30 07:36:43;;;;;;;;;;;17.00;94.90;;;;;;5096020;28;20411;-63
2023/05/30 07:39:09;;;;;;;;;;;16.90;95.10;;;;;;5114650;28;20249;-65
2023/05/30 07:41:36;;;;;;;;;;;16.80;95.60;;;;;;5111247;28;19968;-63
2023/05/30 07:44:03;;;;;;;;;;;16.70;95.80;;;;;;5096051;28;19942;-64
2023/05/30 07:46:29;;;;;;;;;;;16.60;96.00;;;;;;5113111;28;19946;-65
2023/05/30 07:48:56;;;;;;;;;;;16.50;96.20;;;;;;5110116;28;19918;-67
2023/05/30 07:51:22;;;;;;;;;;;16.40;96.30;;;;;;5114130;28;20287;-65
2023/05/30 07:53:49;;;;;;;;;;;16.30;96.60;;;;;;5114539;28;19908;-66
2023/05/30 07:56:16;;;;;;;;;;;16.20;97.00;;;;;;5109011;28;19912;-69
2023/05/30 07:58:42;;;;;;;;;;;16.10;97.40;;;;;;5113758;28;19946;-66
2023/05/30 08:01:09;;;;;;;;;;;16.10;97.80;;;;;;5113334;28;19964;-65
2023/05/30 08:03:36;;;;;;;;;;;16.10;98.20;;;;;;5110867;28;19931;-66
2023/05/30 08:06:02;;;;;;;;;;;15.90;98.40;;;;;;5113241;28;19908;-65
2023/05/30 08:08:29;;;;;;;;;;;15.90;98.60;;;;;;5113115;28;20560;-67
2023/05/30 08:10:56;;;;;;;;;;;15.70;98.80;;;;;;5111022;28;20010;-66
2023/05/30 08:13:28;;;;;;;;;;;15.70;99.20;;;;;;5112717;28;19915;-67
2023/05/30 08:15:55;;;;;;;;;;;15.70;99.50;;;;;;5108840;28;19912;-65
2023/05/30 08:18:22;;;;;;;;;;;15.60;99.80;;;;;;5113554;28;19929;-65
2023/05/30 08:20:50;;;;;;;;;;;15.60;99.90;;;;;;5113575;28;19912;-65
2023/05/30 08:23:17;;;;;;;;;;;15.50;99.90;;;;;;5109874;28;19916;-68
2023/05/30 08:25:45;;;;;;;;;;;15.40;99.90;;;;;;5112657;28;19922;-66
2023/05/30 08:28:12;;;;;;;;;;;15.40;99.90;;;;;;5114056;28;19921;-67
2023/05/30 08:30:40;;;;;;;;;;;15.40;99.90;;;;;;5114642;28;19915;-67
2023/05/30 08:33:10;;;;;;;;;;;15.20;99.90;;;;;;5115930;28;19992;-66
2023/05/30 08:35:37;;;;;;;;;;;15.20;99.90;;;;;;5099923;28;19939;-67
2023/05/30 08:38:04;;;;;;;;;;;15.20;99.90;;;;;;5076210;28;20346;-67
2023/05/30 08:40:30;;;;;;;;;;;15.20;99.90;;;;;;5094246;28;20003;-66
2023/05/30 08:42:57;;;;;;;;;;;15.20;99.90;;;;;;5109553;28;19926;-67
2023/05/30 08:45:23;;;;;;;;;;;15.30;99.90;;;;;;5113964;28;19987;-67
2023/05/30 08:47:56;;;;;;;;;;;15.20;99.90;;;;;;5113863;28;20292;-67
2023/05/30 08:52:57;;;;;;;;;;;15.30;99.90;;;;;;5067524;28;19931;-64
2023/05/30 08:55:30;;;;;;;;;;;15.40;99.90;;;;;;5072481;28;20585;-65
2023/05/30 08:58:00;;;;;;;;;;;15.40;99.90;;;;;;5060874;28;20040;-66
2023/05/30 09:00:27;;;;;;;;;;;15.50;99.90;;;;;;5068267;28;19909;-64
2023/05/30 09:02:57;;;;;;;;;;;15.60;99.80;;;;;;5052271;28;20340;-66
2023/05/30 09:05:25;;;;;;;;;;;15.60;99.70;;;;;;5070506;28;19919;-63
2023/05/30 09:07:53;;;;;;;;;;;15.60;99.60;;;;;;5072556;28;19934;-66
2023/05/30 09:10:20;;;;;;;;;;;15.60;99.50;;;;;;5052328;28;19913;-64
2023/05/30 09:12:46;;;;;;;;;;;15.60;99.40;;;;;;5050907;28;20374;-64
2023/05/30 09:15:13;;;;;;;;;;;15.70;99.30;;;;;;5050969;28;19971;-63
2023/05/30 09:17:40;;;;;;;;;;;15.70;99.20;;;;;;5051104;28;19917;-64
2023/05/30 09:20:10;;;;;;;;;;;15.70;99.10;;;;;;5051193;28;19999;-63
2023/05/30 09:22:37;;;;;;;;;;;15.70;99.10;;;;;;5063388;28;19916;-62
2023/05/30 09:25:05;;;;;;;;;;;15.60;99.10;;;;;;5070148;28;19912;-62
2023/05/30 09:27:35;;;;;;;;;;;15.60;99.00;;;;;;5071585;28;20333;-63
2023/05/30 09:30:09;;;;;;;;;;;15.60;99.10;;;;;;5072458;28;20309;-63
2023/05/30 09:32:37;;;;;;;;;;;15.60;99.10;;;;;;5059913;28;19924;-64
2023/05/30 09:35:04;;;;;;;;;;;15.40;99.00;;;;;;5052012;28;20415;-61
2023/05/30 09:37:41;;;;;;;;;;;15.50;99.10;;;;;;5052192;28;19917;-64
2023/05/30 09:40:10;;;;;;;;;;;15.40;98.90;;;;;;5067327;28;19918;-64
2023/05/30 09:42:42;;;;;;;;;;;15.40;98.90;;;;;;5067114;28;20377;-65
2023/05/30 09:45:10;;;;;;;;;;;15.50;98.90;;;;;;5051020;28;19913;-64
2023/05/30 09:47:40;;;;;;;;;;;15.50;98.70;;;;;;5052209;28;19928;-63
2023/05/30 09:50:07;;;;;;;;;;;15.50;98.70;;;;;;5052341;28;19909;-63
2023/05/30 09:52:34;;;;;;;;;;;15.40;98.90;;;;;;5051976;28;19964;-65
2023/05/30 09:55:05;;;;;;;;;;;15.50;98.70;;;;;;5067590;28;19920;-64
2023/05/30 09:57:39;;;;;;;;;;;15.50;98.70;;;;;;5052097;28;19915;-63
2023/05/30 10:00:09;;;;;;;;;;;15.50;98.70;;;;;;5056301;28;19918;-65
2023/05/30 10:02:36;;;;;;;;;;;15.50;98.90;;;;;;5071436;28;19999;-67
2023/05/30 10:05:04;;;;;;;;;;;15.50;98.50;;;;;;5071044;28;20022;-68
2023/05/30 10:07:32;;;;;;;;;;;15.60;98.30;;;;;;5071612;28;19979;-63
2023/05/30 10:09:59;;;;;;;;;;;15.60;98.30;;;;;;5071828;28;20018;-65
2023/05/30 10:12:26;;;;;;;;;;;15.60;98.20;;;;;;5060533;28;19917;-63
2023/05/30 10:14:53;;;;;;;;;;;15.60;98.20;;;;;;5057839;28;19912;-65
2023/05/30 10:17:21;;;;;;;;;;;15.60;98.20;;;;;;5071731;28;19912;-64
2023/05/30 10:19:53;;;;;;;;;;;15.60;98.20;;;;;;5072009;28;19909;-63
2023/05/30 10:22:24;;;;;;;;;;;15.50;98.30;;;;;;5061169;28;19916;-62
2023/05/30 10:24:51;;;;;;;;;;;15.50;98.30;;;;;;5057196;28;20280;-63
2023/05/30 10:27:25;;;;;;;;;;;15.50;98.20;;;;;;5071843;28;19962;-63
2023/05/30 10:30:11;;;;;;;;;;;15.50;98.40;;;;;;5070358;28;19947;-63
2023/05/30 10:32:40;;;;;;;;;;;15.50;98.30;;;;;;5061537;28;20423;-66
2023/05/30 10:35:12;;;;;;;;;;;15.50;98.40;;;;;;5070046;28;20007;-66
2023/05/30 10:37:38;;;;;;;;;;;15.40;98.40;;;;;;5054010;28;19912;-64
2023/05/30 10:40:16;;;;;;;;;;;15.40;98.50;;;;;;5059488;28;20278;-63
2023/05/30 10:43:01;;;;;;;;;;;15.40;98.60;;;;;;5054176;28;19912;-61
2023/05/30 10:45:47;;;;;;;;;;;15.40;98.80;;;;;;5059427;28;20046;-63
2023/05/30 10:48:23;;;;;;;;;;;15.30;98.70;;;;;;5028224;28;19995;-61
2023/05/30 10:50:52;;;;;;;;;;;15.20;98.90;;;;;;5061111;28;19974;-63
2023/05/30 10:53:19;;;;;;;;;;;15.20;98.90;;;;;;5059559;28;19927;-61
2023/05/30 10:55:47;;;;;;;;;;;15.10;98.90;;;;;;5079251;28;20026;-61
2023/05/30 10:58:31;;;;;;;;;;;15.10;99.00;;;;;;5067295;28;19987;-63
2023/05/30 11:01:18;;;;;;;;;;;15.00;99.20;;;;;;5063888;28;20010;-62
2023/05/30 11:03:47;;;;;;;;;;;15.00;99.40;;;;;;5076484;28;19943;-63
2023/05/30 11:06:15;;;;;;;;;;;14.90;99.50;;;;;;5078438;28;19909;-63
2023/05/30 11:08:41;;;;;;;;;;;14.90;99.50;;;;;;5078976;28;19909;-63
2023/05/30 11:11:17;;;;;;;;;;;14.80;99.50;;;;;;5078175;28;19916;-61
2023/05/30 11:13:44;;;;;;;;;;;14.80;99.70;;;;;;5068642;28;19952;-63
2023/05/30 11:16:24;;;;;;;;;;;14.80;99.80;;;;;;5058564;28;20014;-62
2023/05/30 11:18:53;;;;;;;;;;;14.70;99.90;;;;;;5058490;28;19909;-63
2023/05/30 11:21:38;;;;;;;;;;;14.70;99.90;;;;;;5058631;28;20401;-63
2023/05/30 11:24:08;;;;;;;;;;;14.70;99.90;;;;;;5059479;28;19912;-62
2023/05/30 11:26:53;;;;;;;;;;;14.60;99.90;;;;;;5058704;28;19909;-63
2023/05/30 11:29:31;;;;;;;;;;;14.50;99.90;;;;;;5058743;28;20385;-64
2023/05/30 11:31:58;;;;;;;;;;;14.50;99.90;;;;;;5058556;28;19920;-63
2023/05/30 11:34:25;;;;;;;;;;;14.50;99.90;;;;;;5058500;28;19920;-63
2023/05/30 11:36:52;;;;;;;;;;;14.40;99.90;;;;;;5058819;28;19908;-64
2023/05/30 11:39:19;;;;;;;;;;;14.40;99.90;;;;;;5058691;28;19909;-63
2023/05/30 11:41:46;;;;;;;;;;;14.40;99.90;;;;;;5058930;28;19915;-62
2023/05/30 11:44:13;;;;;;;;;;;14.30;99.90;;;;;;5057003;28;19913;-65
2023/05/30 11:46:40;;;;;;;;;;;14.40;99.90;;;;;;5058749;28;19927;-62
2023/05/30 11:49:07;;;;;;;;;;;14.20;99.90;;;;;;5058453;28;19909;-64
2023/05/30 11:51:34;;;;;;;;;;;14.20;99.90;;;;;;5069804;28;19926;-67
2023/05/30 11:54:01;;;;;;;;;;;14.20;99.90;;;;;;5078662;28;19912;-62
2023/05/30 11:56:31;;;;;;;;;;;14.20;99.90;;;;;;5078482;28;19924;-64
2023/05/30 11:58:58;;;;;;;;;;;14.20;99.90;;;;;;5078696;28;19909;-63
2023/05/30 12:01:25;;;;;;;;;;;14.20;99.90;;;;;;5074154;28;19913;-63
2023/05/30 12:03:54;;;;;;;;;;;14.10;99.90;;;;;;5058071;28;19968;-66
2023/05/30 12:06:21;;;;;;;;;;;14.10;99.90;;;;;;5058422;28;20358;-64
2023/05/30 12:08:48;;;;;;;;;;;14.10;99.90;;;;;;5054580;28;19916;-63
2023/05/30 12:11:15;;;;;;;;;;;14.10;99.90;;;;;;5055323;28;19909;-64
2023/05/30 12:13:42;;;;;;;;;;;13.90;99.90;;;;;;5054931;28;19917;-63
2023/05/30 12:16:12;;;;;;;;;;;14.00;99.90;;;;;;5054994;28;19909;-65
2023/05/30 12:18:39;;;;;;;;;;;13.90;99.90;;;;;;5054895;28;19912;-65
2023/05/30 12:21:06;;;;;;;;;;;13.80;99.90;;;;;;5054965;28;19913;-64
2023/05/30 12:23:33;;;;;;;;;;;13.70;99.90;;;;;;5055174;28;19909;-63
2023/05/30 12:26:00;;;;;;;;;;;13.70;99.90;;;;;;5062543;28;19924;-65
2023/05/30 12:28:26;;;;;;;;;;;13.70;99.90;;;;;;5074900;28;19948;-63
2023/05/30 12:30:53;;;;;;;;;;;13.60;99.90;;;;;;5074103;28;19912;-65
2023/05/30 12:33:24;;;;;;;;;;;13.60;99.90;;;;;;5073367;28;20306;-62
2023/05/30 12:35:55;;;;;;;;;;;13.50;99.90;;;;;;5073761;28;19912;-66
2023/05/30 12:38:22;;;;;;;;;;;13.50;99.90;;;;;;5057035;28;19913;-64
2023/05/30 12:40:49;;;;;;;;;;;13.40;99.90;;;;;;5055155;28;20121;-64
2023/05/30 12:43:16;;;;;;;;;;;13.30;99.90;;;;;;5054867;28;20389;-64
2023/05/30 12:45:44;;;;;;;;;;;13.30;99.90;;;;;;5066401;28;19913;-65
2023/05/30 12:48:11;;;;;;;;;;;13.30;99.90;;;;;;5074472;28;20017;-64
2023/05/30 12:50:38;;;;;;;;;;;13.20;99.90;;;;;;5074502;28;19909;-64
2023/05/30 12:53:05;;;;;;;;;;;13.20;99.90;;;;;;5074475;28;19916;-63
2023/05/30 12:55:31;;;;;;;;;;;13.20;99.90;;;;;;5072862;28;19913;-62
2023/05/30 12:57:59;;;;;;;;;;;13.10;99.90;;;;;;5073772;28;19916;-62
2023/05/30 13:00:27;;;;;;;;;;;13.20;99.90;;;;;;5074527;28;19908;-62
2023/05/30 13:02:54;;;;;;;;;;;13.10;99.90;;;;;;5073926;28;20273;-64
2023/05/30 13:05:20;;;;;;;;;;;13.00;99.90;;;;;;5071008;28;19916;-65
2023/05/30 13:07:47;;;;;;;;;;;13.00;99.90;;;;;;5059688;28;20042;-65
2023/05/30 13:10:13;;;;;;;;;;;12.90;99.90;;;;;;5066558;28;19965;-63
2023/05/30 13:12:41;;;;;;;;;;;12.90;99.90;;;;;;5060088;28;19928;-62
2023/05/30 13:15:07;;;;;;;;;;;12.90;99.90;;;;;;5056627;28;20409;-66
2023/05/30 13:17:34;;;;;;;;;;;12.80;99.90;;;;;;5074234;28;20365;-63
2023/05/30 13:20:01;;;;;;;;;;;12.70;99.90;;;;;;5073774;28;20349;-66
2023/05/30 13:22:27;;;;;;;;;;;12.70;99.90;;;;;;5056065;28;19966;-64
2023/05/30 13:24:54;;;;;;;;;;;12.60;99.90;;;;;;5054636;28;20281;-63
2023/05/30 13:27:21;;;;;;;;;;;12.60;99.90;;;;;;5061146;28;20127;-65
2023/05/30 13:29:47;;;;;;;;;;;12.60;99.90;;;;;;5061905;28;19934;-64
2023/05/30 13:32:14;;;;;;;;;;;12.60;99.90;;;;;;5073736;28;19918;-63
2023/05/30 13:34:41;;;;;;;;;;;12.50;99.90;;;;;;5073511;28;20380;-63
2023/05/30 13:37:07;;;;;;;;;;;12.50;99.90;;;;;;5072810;28;19920;-64
2023/05/30 13:39:34;;;;;;;;;;;12.40;99.90;;;;;;5073795;28;20273;-62
2023/05/30 13:42:02;;;;;;;;;;;12.30;99.90;;;;;;5073722;28;19909;-62
2023/05/30 13:44:28;;;;;;;;;;;12.30;99.90;;;;;;5071639;28;20003;-63
2023/05/30 13:46:55;;;;;;;;;;;12.30;99.90;;;;;;5053494;28;20362;-62
2023/05/30 13:49:27;;;;;;;;;;;12.20;99.90;;;;;;5053675;28;19951;-61
2023/05/30 13:51:54;;;;;;;;;;;12.20;99.90;;;;;;5053420;28;20039;-62
2023/05/30 13:54:21;;;;;;;;;;;12.30;99.90;;;;;;5072038;28;19912;-63
2023/05/30 13:56:48;;;;;;;;;;;12.30;99.90;;;;;;5072847;28;19963;-63
2023/05/30 13:59:14;;;;;;;;;;;12.20;99.90;;;;;;5067066;28;19912;-63
2023/05/30 14:01:41;;;;;;;;;;;12.20;99.90;;;;;;5053413;28;19909;-63
2023/05/30 14:04:08;;;;;;;;;;;12.20;99.90;;;;;;5069372;28;19944;-63
2023/05/30 14:06:37;;;;;;;;;;;12.10;99.90;;;;;;5054971;28;19955;-62
2023/05/30 14:09:07;;;;;;;;;;;12.10;99.90;;;;;;5052713;28;19916;-64
2023/05/30 14:11:35;;;;;;;;;;;12.00;99.90;;;;;;5052742;28;19921;-60
2023/05/30 14:14:02;;;;;;;;;;;12.00;99.90;;;;;;5052874;28;19999;-63
2023/05/30 14:16:31;;;;;;;;;;;12.00;99.90;;;;;;5069138;28;19912;-63
2023/05/30 14:18:58;;;;;;;;;;;12.00;99.90;;;;;;5073024;28;19953;-66
2023/05/30 14:21:24;;;;;;;;;;;11.90;99.90;;;;;;5072783;28;19947;-63
2023/05/30 14:23:51;;;;;;;;;;;11.90;99.90;;;;;;5073070;28;19920;-66